Onde está Louriceira, Santarem en Portugal?

Louriceira está situado na região Santarem em Portugal!

Buscar o nome de uma cidade:

Lourdes, Lourdes, Loúres, Lourisela, Louradhianá

Aqui você vai encontrar a localização de Louriceira em um mapa.
Para ver como ele atualmente parece, abaixo estão algumas fotos da região, com webcams online.
Você também pode encontrar a distância para as principais cidades da região e de cidades do resto do Portugal.

3 lugares nomeadas Louriceira na Portugal.

Todos os lugares do mundo chamado .

new

Onde está Louriceira no mapa?


Webcams perto Louriceira

Vasco Carão > South: Garrocheira, Benavente - Airport.


Vasco Carão > South: Garrocheira, Benavente - Airport - Dia
Actual
Vasco Carão > South: Garrocheira, Benavente - Airport - Actual

Benavente > North-East: AIrport, METAR: BENAV 180005Z 36004KT 17/14 Q1015.


Benavente > North-East: AIrport, METAR: BENAV 180005Z 36004KT 17/14 Q1015 - Dia
Actual
Benavente > North-East: AIrport, METAR: BENAV 180005Z 36004KT 17/14 Q1015 - Actual

Caldas da Rainha.


Caldas da Rainha - Dia
Actual
Caldas da Rainha - Actual

Webcams provided by webcams.travel

Distâncias

Onde está Louriceira em relação a outros lugares?

Top 10 cidades em Santarem e distância de Louriceira.

Cidade#Populaçãokmmilhas
Santarém129385117
Entroncamento2198873723
Tomar3191685132
Torres Novas4145263421
Samora Correia5141543723
Abrantes6136465635
Ourém7127294729
Rio Maior812064149
Fátima9117984226
Almeirim10115561811

Top 10 cidades em Portugal e distância de Louriceira.

Cidade # Populaçãokmmilhas
Lisbon15177986842
Porto2249630211131
Amadora31788566842
Braga4121393257160
Setúbal51171098251
Coimbra610658010968
Queluz71033986842
Funchal8980411036644
Vila Nova de Gaia970810209130
Loures10662305836